createdAt,value
2024-05-09T00:00:45.804Z,98.47
2024-05-09T00:01:45.501Z,98.47
2024-05-09T00:02:45.440Z,98.47
2024-05-09T00:03:45.616Z,98.57
2024-05-09T00:04:45.495Z,98.68
2024-05-09T00:05:45.574Z,98.68
2024-05-09T00:06:45.414Z,98.68
2024-05-09T00:07:45.434Z,98.68
2024-05-09T00:08:45.435Z,98.57
2024-05-09T00:09:45.348Z,98.57
2024-05-09T00:10:45.448Z,98.57
2024-05-09T00:11:45.487Z,98.57
2024-05-09T00:12:45.322Z,98.57
2024-05-09T00:13:45.342Z,98.57
2024-05-09T00:14:45.288Z,98.52
2024-05-09T00:15:45.290Z,98.52
2024-05-09T00:16:45.340Z,98.52
2024-05-09T00:17:45.520Z,98.52
2024-05-09T00:18:45.313Z,98.52
2024-05-09T00:19:45.264Z,98.61
2024-05-09T00:20:45.287Z,98.52
2024-05-09T00:21:45.223Z,98.61
2024-05-09T00:22:45.242Z,98.61
2024-05-09T00:23:45.226Z,98.72
2024-05-09T00:24:45.183Z,98.72
2024-05-09T00:25:45.497Z,98.72
2024-05-09T00:26:45.146Z,98.72
2024-05-09T00:27:45.124Z,98.72
2024-05-09T00:28:45.166Z,98.72
2024-05-09T00:29:45.115Z,98.72
2024-05-09T00:30:45.112Z,98.72
2024-05-09T00:31:45.144Z,98.72
2024-05-09T00:32:45.196Z,98.72
2024-05-09T00:33:45.163Z,98.72
2024-05-09T00:34:45.090Z,98.72
2024-05-09T00:35:45.033Z,98.72
2024-05-09T00:36:45.014Z,98.72
2024-05-09T00:37:45.026Z,98.72
2024-05-09T00:38:45.032Z,98.61
2024-05-09T00:39:44.959Z,98.77
2024-05-09T00:40:45.026Z,98.77
2024-05-09T00:41:44.990Z,98.66
2024-05-09T00:42:44.953Z,98.77
2024-05-09T00:43:44.995Z,98.77
2024-05-09T00:44:44.898Z,98.77
2024-05-09T00:45:44.933Z,98.66
2024-05-09T00:46:44.951Z,98.66
2024-05-09T00:47:44.988Z,98.66
2024-05-09T00:48:44.928Z,98.66
2024-05-09T00:49:44.923Z,98.66
2024-05-09T00:50:44.998Z,98.66
2024-05-09T00:51:44.833Z,98.66
2024-05-09T00:52:44.831Z,98.77
2024-05-09T00:53:44.830Z,98.77
2024-05-09T00:54:48.536Z,98.66
2024-05-09T00:55:44.982Z,98.66
2024-05-09T00:56:44.774Z,98.66
2024-05-09T00:57:44.736Z,98.66
2024-05-09T00:58:44.759Z,98.66
2024-05-09T00:59:44.722Z,98.56
2024-05-09T01:00:44.891Z,98.56
2024-05-09T01:01:44.870Z,98.66
2024-05-09T01:02:44.873Z,98.66
2024-05-09T01:03:46.484Z,98.77
2024-05-09T01:04:44.805Z,98.66
2024-05-09T01:05:44.708Z,98.77
2024-05-09T01:06:44.642Z,98.77
2024-05-09T01:07:44.650Z,98.86
2024-05-09T01:08:44.658Z,98.86
2024-05-09T01:09:44.592Z,98.86
2024-05-09T01:10:46.132Z,98.86
2024-05-09T01:11:44.783Z,98.86
2024-05-09T01:12:44.544Z,98.86
2024-05-09T01:13:44.557Z,98.97
2024-05-09T01:14:44.529Z,98.97
2024-05-09T01:15:44.508Z,98.97
2024-05-09T01:16:44.568Z,99.07
2024-05-09T01:17:44.710Z,99.07
2024-05-09T01:18:44.537Z,99.07
2024-05-09T01:19:44.542Z,99.07
2024-05-09T01:20:45.514Z,99.07
2024-05-09T01:21:44.421Z,98.97
2024-05-09T01:22:44.482Z,98.97
2024-05-09T01:23:44.440Z,99.02
2024-05-09T01:24:44.387Z,99.02
2024-05-09T01:25:44.838Z,99.02
2024-05-09T01:26:44.375Z,98.91
2024-05-09T01:27:44.362Z,98.91
2024-05-09T01:28:44.368Z,98.91
2024-05-09T01:29:44.336Z,98.91
2024-05-09T01:30:44.320Z,98.91
2024-05-09T01:31:44.430Z,98.91
2024-05-09T01:32:44.488Z,98.91
2024-05-09T01:33:44.396Z,98.81
2024-05-09T01:34:44.309Z,98.81
2024-05-09T01:35:44.273Z,98.81
2024-05-09T01:36:44.251Z,98.71
2024-05-09T01:37:44.255Z,98.71
2024-05-09T01:38:44.234Z,98.71
2024-05-09T01:39:44.223Z,98.71
2024-05-09T01:40:44.255Z,98.71
2024-05-09T01:41:44.177Z,98.75
2024-05-09T01:42:44.154Z,98.75
2024-05-09T01:43:44.168Z,98.75
2024-05-09T01:44:44.122Z,98.75
2024-05-09T01:45:44.115Z,98.75
2024-05-09T01:46:44.160Z,98.75
2024-05-09T01:47:44.306Z,98.75
2024-05-09T01:48:44.212Z,98.75
2024-05-09T01:49:44.290Z,98.86
2024-05-09T01:50:44.136Z,98.75
2024-05-09T01:51:44.062Z,98.75
2024-05-09T01:52:44.054Z,98.86
2024-05-09T01:53:44.065Z,98.75
2024-05-09T01:54:43.991Z,98.65
2024-05-09T01:55:44.224Z,98.65
2024-05-09T01:56:43.987Z,98.75
2024-05-09T01:57:43.956Z,98.65
2024-05-09T01:58:43.997Z,98.65
2024-05-09T01:59:43.927Z,98.65
2024-05-09T02:00:44.018Z,98.65
2024-05-09T02:01:56.285Z,98.65
2024-05-09T02:02:45.007Z,98.65
2024-05-09T02:03:44.095Z,98.65
2024-05-09T02:04:44.261Z,98.65
2024-05-09T02:05:44.045Z,98.65
2024-05-09T02:06:43.874Z,98.65
2024-05-09T02:07:43.923Z,98.65
2024-05-09T02:08:43.836Z,98.80
2024-05-09T02:09:43.833Z,98.80
2024-05-09T02:10:43.913Z,98.80
2024-05-09T02:11:43.933Z,98.80
2024-05-09T02:12:43.785Z,98.80
2024-05-09T02:13:43.789Z,98.80
2024-05-09T02:14:43.751Z,98.80
2024-05-09T02:15:43.761Z,98.80
2024-05-09T02:16:43.903Z,98.80
2024-05-09T02:17:43.942Z,98.80
2024-05-09T02:18:43.788Z,98.80
2024-05-09T02:19:43.701Z,98.80
2024-05-09T02:20:44.190Z,98.80
2024-05-09T02:21:43.672Z,98.90
2024-05-09T02:22:43.693Z,98.90
2024-05-09T02:23:43.667Z,98.90
2024-05-09T02:24:43.633Z,98.90
2024-05-09T02:25:43.635Z,99.01
2024-05-09T02:26:43.602Z,99.01
2024-05-09T02:27:43.573Z,98.90
2024-05-09T02:28:43.563Z,98.90
2024-05-09T02:29:43.541Z,98.90
2024-05-09T02:30:43.533Z,98.90
2024-05-09T02:31:43.627Z,98.90
2024-05-09T02:32:43.697Z,98.90
2024-05-09T02:33:43.642Z,98.90
2024-05-09T02:34:43.569Z,99.01
2024-05-09T02:35:44.381Z,99.01
2024-05-09T02:36:43.449Z,99.01
2024-05-09T02:37:43.488Z,99.01
2024-05-09T02:38:43.461Z,99.01
2024-05-09T02:39:43.444Z,98.90
2024-05-09T02:40:43.450Z,99.01
2024-05-09T02:41:43.410Z,99.01
2024-05-09T02:42:43.374Z,99.01
2024-05-09T02:43:43.415Z,99.01
2024-05-09T02:44:43.354Z,98.90
2024-05-09T02:45:43.373Z,99.01
2024-05-09T02:46:43.490Z,99.01
2024-05-09T02:47:43.548Z,99.01
2024-05-09T02:48:43.443Z,99.01
2024-05-09T02:49:43.370Z,99.01
2024-05-09T02:50:43.332Z,99.01
2024-05-09T02:51:43.276Z,99.01
2024-05-09T02:52:43.305Z,99.01
2024-05-09T02:53:43.293Z,99.11
2024-05-09T02:54:43.243Z,99.11
2024-05-09T02:55:43.550Z,99.05
2024-05-09T02:56:43.219Z,99.15
2024-05-09T02:57:43.178Z,98.95
2024-05-09T02:58:43.256Z,98.95
2024-05-09T02:59:43.170Z,98.95
2024-05-09T03:00:43.368Z,98.85
2024-05-09T03:01:43.328Z,98.85
2024-05-09T03:02:43.310Z,98.85
2024-05-09T03:03:43.289Z,98.85
2024-05-09T03:04:43.206Z,98.74
2024-05-09T03:05:43.529Z,98.74
2024-05-09T03:06:43.097Z,98.85
2024-05-09T03:07:43.096Z,98.95
2024-05-09T03:08:43.070Z,98.85
2024-05-09T03:09:43.051Z,98.85
2024-05-09T03:10:43.131Z,98.85
2024-05-09T03:11:43.095Z,98.85
2024-05-09T03:12:43.085Z,98.85
2024-05-09T03:13:43.005Z,98.95
2024-05-09T03:14:42.976Z,98.85
2024-05-09T03:15:43.165Z,98.85
2024-05-09T03:16:42.976Z,98.85
2024-05-09T03:17:43.267Z,98.74
2024-05-09T03:18:43.025Z,98.90
2024-05-09T03:19:42.921Z,98.90
2024-05-09T03:20:42.935Z,98.90
2024-05-09T03:21:42.899Z,98.90
2024-05-09T03:22:42.928Z,98.90
2024-05-09T03:23:42.973Z,98.79
2024-05-09T03:24:42.856Z,98.79
2024-05-09T03:25:42.833Z,98.79
2024-05-09T03:26:42.831Z,98.90
2024-05-09T03:27:42.797Z,98.90
2024-05-09T03:28:42.814Z,98.90
2024-05-09T03:29:42.775Z,98.99
2024-05-09T03:30:43.422Z,98.99
2024-05-09T03:31:42.793Z,98.99
2024-05-09T03:32:43.019Z,98.99
2024-05-09T03:33:42.865Z,98.99
2024-05-09T03:34:42.740Z,98.90
2024-05-09T03:35:42.699Z,98.90
2024-05-09T03:36:42.707Z,98.99
2024-05-09T03:37:42.671Z,98.90
2024-05-09T03:38:42.725Z,98.90
2024-05-09T03:39:42.659Z,98.90
2024-05-09T03:40:42.633Z,98.90
2024-05-09T03:41:42.744Z,98.90
2024-05-09T03:42:42.604Z,98.90
2024-05-09T03:43:42.586Z,98.79
2024-05-09T03:44:42.577Z,98.79
2024-05-09T03:45:42.632Z,98.79
2024-05-09T03:46:42.558Z,98.79
2024-05-09T03:47:42.874Z,98.79
2024-05-09T03:48:42.621Z,98.90
2024-05-09T03:49:42.572Z,98.90
2024-05-09T03:50:42.663Z,98.90
2024-05-09T03:51:42.521Z,98.90
2024-05-09T03:52:42.477Z,98.90
2024-05-09T03:53:42.483Z,98.99
2024-05-09T03:54:42.470Z,98.99
2024-05-09T03:55:42.435Z,98.99
2024-05-09T03:56:42.541Z,99.04
2024-05-09T03:57:42.427Z,98.94
2024-05-09T03:58:42.394Z,98.94
2024-05-09T03:59:42.395Z,99.04
2024-05-09T04:00:42.758Z,98.94
2024-05-09T04:01:42.602Z,98.94
2024-05-09T04:02:42.496Z,98.94
2024-05-09T04:03:42.492Z,98.94
2024-05-09T04:04:42.411Z,98.94
2024-05-09T04:05:43.458Z,98.94
2024-05-09T04:06:42.293Z,99.04
2024-05-09T04:07:42.285Z,99.04
2024-05-09T04:08:42.349Z,99.04
2024-05-09T04:09:42.273Z,99.15
2024-05-09T04:10:42.277Z,99.15
2024-05-09T04:11:42.284Z,99.15
2024-05-09T04:12:42.232Z,99.15
2024-05-09T04:13:42.212Z,99.15
2024-05-09T04:14:42.257Z,99.15
2024-05-09T04:15:42.198Z,99.04
2024-05-09T04:16:42.256Z,99.04
2024-05-09T04:17:42.294Z,99.04
2024-05-09T04:18:42.265Z,99.15
2024-05-09T04:19:42.154Z,99.04
2024-05-09T04:20:42.274Z,99.15
2024-05-09T04:21:42.102Z,99.15
2024-05-09T04:22:42.096Z,99.15
2024-05-09T04:23:42.258Z,99.15
2024-05-09T04:24:42.079Z,99.15
2024-05-09T04:25:42.085Z,99.25
2024-05-09T04:26:42.119Z,99.25
2024-05-09T04:27:42.046Z,99.25
2024-05-09T04:28:42.034Z,99.25
2024-05-09T04:29:42.006Z,99.25
2024-05-09T04:30:42.677Z,99.15
2024-05-09T04:31:42.010Z,99.15
2024-05-09T04:32:42.124Z,99.15
2024-05-09T04:33:42.107Z,99.15
2024-05-09T04:34:42.008Z,99.15
2024-05-09T04:35:42.736Z,99.15
2024-05-09T04:36:44.331Z,99.15
2024-05-09T04:37:41.919Z,99.15
2024-05-09T04:38:41.900Z,99.15
2024-05-09T04:39:41.879Z,99.25
2024-05-09T04:40:41.930Z,99.15
2024-05-09T04:41:41.850Z,99.25
2024-05-09T04:42:49.917Z,99.25
2024-05-09T04:43:41.848Z,99.25
2024-05-09T04:44:41.817Z,99.25
2024-05-09T04:45:41.801Z,99.25
2024-05-09T04:46:41.788Z,99.25
2024-05-09T04:47:41.971Z,99.25
2024-05-09T04:48:41.923Z,99.25
2024-05-09T04:49:41.814Z,99.35
2024-05-09T04:50:41.851Z,99.30
2024-05-09T04:51:41.728Z,99.41
2024-05-09T04:52:41.702Z,99.41
2024-05-09T04:53:41.767Z,99.41
2024-05-09T04:54:41.701Z,99.41
2024-05-09T04:55:41.704Z,99.41
2024-05-09T04:56:41.733Z,99.41
2024-05-09T04:57:41.672Z,99.41
2024-05-09T04:58:41.642Z,99.61
2024-05-09T04:59:41.656Z,99.61
2024-05-09T05:00:41.966Z,99.61
2024-05-09T05:01:41.606Z,99.66
2024-05-09T05:02:41.639Z,99.66
2024-05-09T05:03:41.772Z,99.77
2024-05-09T05:04:41.717Z,99.87
2024-05-09T05:05:41.895Z,99.87
2024-05-09T05:06:41.519Z,99.87
2024-05-09T05:07:41.510Z,99.98
2024-05-09T05:08:41.585Z,99.98
2024-05-09T05:09:41.488Z,99.98
2024-05-09T05:10:41.503Z,99.98
2024-05-09T05:11:41.660Z,99.98
2024-05-09T05:12:41.474Z,99.99
2024-05-09T05:13:41.793Z,99.98
2024-05-09T05:14:41.518Z,99.99
2024-05-09T05:15:41.399Z,99.99
2024-05-09T05:16:41.422Z,99.99
2024-05-09T05:17:41.604Z,99.99
2024-05-09T05:18:41.481Z,99.98
2024-05-09T05:19:41.481Z,99.99
2024-05-09T05:20:41.430Z,99.98
2024-05-09T05:21:41.343Z,99.99
2024-05-09T05:22:41.322Z,99.99
2024-05-09T05:23:41.495Z,99.99
2024-05-09T05:24:41.299Z,99.99
2024-05-09T05:25:41.313Z,99.99
2024-05-09T05:26:41.353Z,99.99
2024-05-09T05:27:41.281Z,99.99
2024-05-09T05:28:41.257Z,99.99
2024-05-09T05:29:41.291Z,99.99
2024-05-09T05:30:41.269Z,99.99
2024-05-09T05:31:41.230Z,99.99
2024-05-09T05:32:41.358Z,99.99
2024-05-09T05:33:41.274Z,99.99
2024-05-09T05:34:41.176Z,99.99
2024-05-09T05:35:41.263Z,99.99
2024-05-09T05:36:41.155Z,99.99
2024-05-09T05:37:41.128Z,99.99
2024-05-09T05:38:41.299Z,99.99
2024-05-09T05:39:41.102Z,99.99
2024-05-09T05:40:41.369Z,99.99
2024-05-09T05:41:41.189Z,99.99
2024-05-09T05:42:41.088Z,99.99
2024-05-09T05:43:41.092Z,99.99
2024-05-09T05:44:41.129Z,99.99
2024-05-09T05:45:41.019Z,99.99
2024-05-09T05:46:41.005Z,99.99
2024-05-09T05:47:41.267Z,99.99
2024-05-09T05:48:50.008Z,99.99
2024-05-09T05:49:49.923Z,99.99
2024-05-09T05:50:49.839Z,99.99
2024-05-09T05:51:40.982Z,99.99
2024-05-09T05:52:40.923Z,99.99
2024-05-09T05:53:41.140Z,99.99
2024-05-09T05:54:40.898Z,99.99
2024-05-09T05:55:41.137Z,99.99
2024-05-09T05:56:40.979Z,99.99
2024-05-09T05:57:40.853Z,99.99
2024-05-09T05:58:40.845Z,99.99
2024-05-09T05:59:40.937Z,99.99
2024-05-09T06:00:41.745Z,99.99
2024-05-09T06:01:40.847Z,99.99
2024-05-09T06:02:41.084Z,99.99
2024-05-09T06:03:41.090Z,99.99
2024-05-09T06:04:40.814Z,99.99
2024-05-09T06:05:41.252Z,99.99
2024-05-09T06:06:40.783Z,99.99
2024-05-09T06:07:40.749Z,99.99
2024-05-09T06:08:40.789Z,99.99
2024-05-09T06:09:40.708Z,99.99
2024-05-09T06:10:41.694Z,99.99
2024-05-09T06:11:40.800Z,99.99
2024-05-09T06:12:40.673Z,99.99
2024-05-09T06:13:40.674Z,99.99
2024-05-09T06:14:40.712Z,99.99
2024-05-09T06:15:41.022Z,99.99
2024-05-09T06:16:40.626Z,99.99
2024-05-09T06:17:40.749Z,99.99
2024-05-09T06:18:40.698Z,99.99
2024-05-09T06:19:40.672Z,99.99
2024-05-09T06:20:40.741Z,99.99
2024-05-09T06:21:40.557Z,99.99
2024-05-09T06:22:40.541Z,99.99
2024-05-09T06:23:40.784Z,99.99
2024-05-09T06:24:40.508Z,99.99
2024-05-09T06:25:40.538Z,99.99
2024-05-09T06:26:40.603Z,99.99
2024-05-09T06:27:40.475Z,99.99
2024-05-09T06:28:40.455Z,99.99
2024-05-09T06:29:40.504Z,99.99
2024-05-09T06:30:42.317Z,99.99
2024-05-09T06:31:40.463Z,99.99
2024-05-09T06:32:40.572Z,99.99
2024-05-09T06:33:40.671Z,99.99
2024-05-09T06:34:40.455Z,99.99
2024-05-09T06:35:40.833Z,99.99
2024-05-09T06:36:40.382Z,99.99
2024-05-09T06:37:40.342Z,99.99
2024-05-09T06:38:40.401Z,99.99
2024-05-09T06:39:40.324Z,99.99
2024-05-09T06:40:42.091Z,99.99
2024-05-09T06:41:40.386Z,99.99
2024-05-09T06:42:40.284Z,99.99
2024-05-09T06:43:40.263Z,99.99
2024-05-09T06:44:40.354Z,99.99
2024-05-09T06:45:40.426Z,99.99
2024-05-09T06:46:40.349Z,99.99
2024-05-09T06:47:40.487Z,99.91
2024-05-09T06:48:40.586Z,99.70
2024-05-09T06:49:40.279Z,99.60
2024-05-09T06:50:40.629Z,99.60
2024-05-09T06:51:40.182Z,99.55
2024-05-09T06:52:40.148Z,99.45
2024-05-09T06:53:40.379Z,99.35
2024-05-09T06:54:40.140Z,99.25
2024-05-09T06:55:40.150Z,99.15
2024-05-09T06:56:40.176Z,99.04
2024-05-09T06:57:43.009Z,99.00
2024-05-09T06:58:40.095Z,98.90
2024-05-09T06:59:40.087Z,98.79
2024-05-09T07:00:41.723Z,98.49
2024-05-09T07:01:40.121Z,98.39
2024-05-09T07:02:40.180Z,98.18
2024-05-09T07:03:40.108Z,98.08
2024-05-09T07:04:40.104Z,98.08
2024-05-09T07:05:40.031Z,97.88
2024-05-09T07:06:39.986Z,97.67
2024-05-09T07:07:39.967Z,97.37
2024-05-09T07:08:40.121Z,97.06
2024-05-09T07:09:39.931Z,96.92
2024-05-09T07:10:39.921Z,96.81
2024-05-09T07:11:39.951Z,96.81
2024-05-09T07:12:39.903Z,96.92
2024-05-09T07:13:39.908Z,96.92
2024-05-09T07:14:40.013Z,96.81
2024-05-09T07:15:39.919Z,96.87
2024-05-09T07:16:39.876Z,96.87
2024-05-09T07:17:39.950Z,96.87
2024-05-09T07:18:40.051Z,96.97
2024-05-09T07:19:39.906Z,96.87
2024-05-09T07:20:39.975Z,96.77
2024-05-09T07:21:39.835Z,96.67
2024-05-09T07:22:39.775Z,96.52
2024-05-09T07:23:39.883Z,96.52
2024-05-09T07:24:39.748Z,96.42
2024-05-09T07:25:39.751Z,96.42
2024-05-09T07:26:39.801Z,96.31
2024-05-09T07:27:39.708Z,96.31
2024-05-09T07:28:40.538Z,96.22
2024-05-09T07:29:39.740Z,96.01
2024-05-09T07:30:39.662Z,95.86
2024-05-09T07:31:39.672Z,95.66
2024-05-09T07:32:39.784Z,95.56
2024-05-09T07:33:39.719Z,95.46
2024-05-09T07:34:39.682Z,95.46
2024-05-09T07:35:39.808Z,95.66
2024-05-09T07:36:39.959Z,95.76
2024-05-09T07:37:39.612Z,95.66
2024-05-09T07:38:39.773Z,95.56
2024-05-09T07:39:39.555Z,95.46
2024-05-09T07:40:39.536Z,95.46
2024-05-09T07:41:39.658Z,95.72
2024-05-09T07:42:39.517Z,95.82
2024-05-09T07:43:39.535Z,95.51
2024-05-09T07:44:39.553Z,95.41
2024-05-09T07:45:48.954Z,95.41
2024-05-09T07:47:47.710Z,94.90
2024-05-09T07:49:11.964Z,94.70
2024-05-09T07:53:14.352Z,94.05
2024-05-09T07:53:34.198Z,94.15
2024-05-09T07:53:44.607Z,94.15
2024-05-09T07:54:40.570Z,94.05
2024-05-09T07:55:39.471Z,94.05
2024-05-09T07:56:39.585Z,94.15
2024-05-09T07:57:39.374Z,94.35
2024-05-09T07:58:39.334Z,94.31
2024-05-09T07:59:39.338Z,94.41
2024-05-09T08:00:39.425Z,94.41
2024-05-09T08:01:39.358Z,94.31
2024-05-09T08:02:39.322Z,94.10
2024-05-09T08:03:39.374Z,93.60
2024-05-09T08:04:39.374Z,93.19
2024-05-09T08:05:39.330Z,92.79
2024-05-09T08:06:39.262Z,92.79
2024-05-09T08:07:39.197Z,92.63
2024-05-09T08:08:39.189Z,93.29
2024-05-09T08:09:39.195Z,94.31
2024-05-09T08:10:39.303Z,94.41
2024-05-09T08:11:39.187Z,94.17
2024-05-09T08:12:39.152Z,93.76
2024-05-09T08:13:39.144Z,92.94
2024-05-09T08:14:39.126Z,92.33
2024-05-09T08:15:39.160Z,92.44
2024-05-09T08:16:39.090Z,92.64
2024-05-09T08:17:39.137Z,91.73
2024-05-09T08:18:39.352Z,91.22
2024-05-09T08:19:39.164Z,91.12
2024-05-09T08:20:39.049Z,91.42
2024-05-09T08:21:39.042Z,91.83
2024-05-09T08:22:39.007Z,91.99
2024-05-09T08:23:39.005Z,92.29
2024-05-09T08:24:39.026Z,91.99
2024-05-09T08:25:38.975Z,91.74
2024-05-09T08:26:38.959Z,91.34
2024-05-09T08:27:38.956Z,90.42
2024-05-09T08:28:38.912Z,89.81
2024-05-09T08:29:38.939Z,89.31
2024-05-09T08:30:39.170Z,89.61
2024-05-09T08:31:39.034Z,89.51
2024-05-09T08:32:38.953Z,89.11
2024-05-09T08:33:39.158Z,89.26
2024-05-09T08:34:38.950Z,89.98
2024-05-09T08:35:38.832Z,91.09
2024-05-09T08:36:38.855Z,89.98
2024-05-09T08:37:40.601Z,89.26
2024-05-09T08:38:38.797Z,89.17
2024-05-09T08:39:38.822Z,89.87
2024-05-09T08:40:39.183Z,89.77
2024-05-09T08:41:38.783Z,89.67
2024-05-09T08:42:38.923Z,89.43
2024-05-09T08:43:41.569Z,89.53
2024-05-09T08:44:38.728Z,89.43
2024-05-09T08:45:39.119Z,89.83
2024-05-09T08:46:38.724Z,90.24
2024-05-09T08:47:38.761Z,89.89
2024-05-09T08:48:38.789Z,89.89
2024-05-09T08:49:40.837Z,89.18
2024-05-09T08:50:39.932Z,88.68
2024-05-09T08:51:38.685Z,88.17
2024-05-09T08:52:38.689Z,88.68
2024-05-09T08:53:38.610Z,88.64
2024-05-09T08:54:38.657Z,88.33
2024-05-09T08:55:41.796Z,88.53
2024-05-09T08:56:38.600Z,87.68
2024-05-09T08:57:49.137Z,86.27
2024-05-09T08:58:38.564Z,86.07
2024-05-09T08:59:38.515Z,86.27
2024-05-09T09:00:38.658Z,86.10
2024-05-09T09:01:40.015Z,86.51
2024-05-09T09:02:38.642Z,86.71
2024-05-09T09:03:38.671Z,86.51
2024-05-09T09:04:38.558Z,87.08
2024-05-09T09:05:38.701Z,88.09
2024-05-09T09:06:38.516Z,88.90
2024-05-09T09:07:38.468Z,89.40
2024-05-09T09:08:38.435Z,89.50
2024-05-09T09:09:38.565Z,88.75
2024-05-09T09:10:38.448Z,87.74
2024-05-09T09:11:38.381Z,87.44
2024-05-09T09:12:38.415Z,88.15
2024-05-09T09:13:38.387Z,88.35
2024-05-09T09:14:38.323Z,87.64
2024-05-09T09:15:38.357Z,87.54
2024-05-09T09:16:38.287Z,88.01
2024-05-09T09:17:38.363Z,87.50
2024-05-09T09:18:38.748Z,87.40
2024-05-09T09:19:38.330Z,86.90
2024-05-09T09:20:38.316Z,85.38
2024-05-09T09:21:38.290Z,85.78
2024-05-09T09:22:38.245Z,85.17
2024-05-09T09:23:38.225Z,84.73
2024-05-09T09:24:38.243Z,84.93
2024-05-09T09:25:38.186Z,85.64
2024-05-09T09:26:38.168Z,86.65
2024-05-09T09:27:38.197Z,86.04
2024-05-09T09:28:38.140Z,84.33
2024-05-09T09:29:38.127Z,82.71
2024-05-09T09:30:38.366Z,82.51
2024-05-09T09:31:38.140Z,83.32
2024-05-09T09:32:38.263Z,84.23
2024-05-09T09:33:38.313Z,84.73
2024-05-09T09:34:38.099Z,83.62
2024-05-09T09:35:38.043Z,83.52
2024-05-09T09:36:38.116Z,83.72
2024-05-09T09:37:38.037Z,83.92
2024-05-09T09:38:38.109Z,83.32
2024-05-09T09:39:38.066Z,82.41
2024-05-09T09:40:42.828Z,81.50
2024-05-09T09:43:57.662Z,81.60
2024-05-09T09:45:04.347Z,82.91
2024-05-09T09:45:58.629Z,84.39
2024-05-09T09:46:57.620Z,82.67
2024-05-09T09:47:57.682Z,81.76
2024-05-09T09:48:57.634Z,81.16
2024-05-09T09:49:57.531Z,81.46
2024-05-09T09:50:57.560Z,80.85
2024-05-09T09:51:57.570Z,80.25
2024-05-09T09:52:57.505Z,79.85
2024-05-09T09:53:57.483Z,79.10
2024-05-09T09:54:57.521Z,78.50
2024-05-09T09:55:57.450Z,80.01
2024-05-09T09:56:57.446Z,80.41
2024-05-09T09:57:57.470Z,80.31
2024-05-09T09:58:57.429Z,77.99
2024-05-09T09:59:57.398Z,78.80
2024-05-09T10:00:57.458Z,79.30
2024-05-09T10:01:57.533Z,77.59
2024-05-09T10:02:57.411Z,76.98
2024-05-09T10:03:57.535Z,74.12
2024-05-09T10:04:57.500Z,73.22
2024-05-09T10:05:57.375Z,73.01
2024-05-09T10:06:57.382Z,74.43
2024-05-09T10:07:57.320Z,73.42
2024-05-09T10:08:57.306Z,76.04
2024-05-09T10:09:57.444Z,74.32
2024-05-09T10:10:57.417Z,74.93
2024-05-09T10:12:00.255Z,76.04
2024-05-09T10:12:57.316Z,77.15
2024-05-09T10:13:57.231Z,76.64
2024-05-09T10:14:57.201Z,73.82
2024-05-09T10:15:57.204Z,73.01
2024-05-09T10:16:57.200Z,70.39
2024-05-09T10:17:57.277Z,70.39
2024-05-09T10:18:57.317Z,73.52
2024-05-09T10:19:57.416Z,76.04
2024-05-09T10:20:57.136Z,75.03
2024-05-09T10:21:57.193Z,73.42
2024-05-09T10:22:57.108Z,73.48
2024-05-09T10:23:57.108Z,71.17
2024-05-09T10:24:57.135Z,70.97
2024-05-09T10:25:57.059Z,70.56
2024-05-09T10:26:57.064Z,70.36
2024-05-09T10:27:57.087Z,69.12
2024-05-09T10:28:57.026Z,68.61
2024-05-09T10:29:57.033Z,67.10
2024-05-09T10:30:57.120Z,66.50
2024-05-09T10:31:56.972Z,63.78
2024-05-09T10:32:57.045Z,63.17
2024-05-09T10:33:57.164Z,62.97
2024-05-09T10:34:57.030Z,63.40
2024-05-09T10:35:56.917Z,64.01
2024-05-09T10:36:56.949Z,64.31
2024-05-09T10:37:56.931Z,65.01
2024-05-09T10:38:56.925Z,66.93
2024-05-09T10:39:56.902Z,68.04
2024-05-09T10:40:56.933Z,66.13
2024-05-09T10:41:56.870Z,63.67
2024-05-09T10:42:56.891Z,62.57
2024-05-09T10:43:56.869Z,62.87
2024-05-09T10:44:56.834Z,64.38
2024-05-09T10:45:56.809Z,65.59
2024-05-09T10:46:56.835Z,65.79
2024-05-09T10:47:56.892Z,64.78
2024-05-09T10:48:56.861Z,68.61
2024-05-09T10:49:56.831Z,66.60
2024-05-09T10:50:56.739Z,67.37
2024-05-09T10:51:56.763Z,65.56
2024-05-09T10:52:56.715Z,62.44
2024-05-09T10:53:56.696Z,63.75
2024-05-09T10:54:56.756Z,63.75
2024-05-09T10:55:56.659Z,62.84
2024-05-09T10:56:56.654Z,65.02
2024-05-09T10:57:56.657Z,63.62
2024-05-09T10:58:56.692Z,61.90
2024-05-09T10:59:56.672Z,61.93
2024-05-09T11:00:56.688Z,62.34
2024-05-09T11:02:04.381Z,62.34
2024-05-09T11:02:56.717Z,62.44
2024-05-09T11:03:59.393Z,61.80
2024-05-09T11:04:56.672Z,62.01
2024-05-09T11:05:56.594Z,62.94
2024-05-09T11:06:56.540Z,61.33
2024-05-09T11:07:56.509Z,62.34
2024-05-09T11:08:56.522Z,62.13
2024-05-09T11:09:56.550Z,64.45
2024-05-09T11:10:56.607Z,64.35
2024-05-09T11:11:56.482Z,64.05
2024-05-09T11:12:56.477Z,61.30
2024-05-09T11:13:56.455Z,61.20
2024-05-09T11:14:56.434Z,62.30
2024-05-09T11:15:56.501Z,59.69
2024-05-09T11:16:56.377Z,61.80
2024-05-09T11:17:56.586Z,64.12
2024-05-09T11:18:56.825Z,62.30
2024-05-09T11:19:56.465Z,63.42
2024-05-09T11:20:56.391Z,63.11
2024-05-09T11:21:56.332Z,63.21
2024-05-09T11:22:56.346Z,61.60
2024-05-09T11:23:56.331Z,62.01
2024-05-09T11:24:56.388Z,62.71
2024-05-09T11:25:56.276Z,66.03
2024-05-09T11:26:56.273Z,65.73
2024-05-09T11:27:56.276Z,65.12
2024-05-09T11:28:56.261Z,66.23
2024-05-09T11:29:56.214Z,67.14
2024-05-09T11:30:56.235Z,69.42
2024-05-09T11:31:56.316Z,67.94
2024-05-09T11:32:56.325Z,66.33
2024-05-09T11:33:56.335Z,67.91
2024-05-09T11:34:56.225Z,67.11
2024-05-09T11:35:56.125Z,66.71
2024-05-09T11:36:56.155Z,67.51
2024-05-09T11:37:56.203Z,63.99
2024-05-09T11:38:56.109Z,65.59
2024-05-09T11:39:56.120Z,64.36
2024-05-09T11:40:56.132Z,63.96
2024-05-09T11:41:56.060Z,64.26
2024-05-09T11:42:56.127Z,64.86
2024-05-09T11:43:56.088Z,65.47
2024-05-09T11:44:56.012Z,64.76
2024-05-09T11:45:56.056Z,66.27
2024-05-09T11:46:56.004Z,64.86
2024-05-09T11:47:56.080Z,63.56
2024-05-09T11:48:56.195Z,64.76
2024-05-09T11:49:56.015Z,64.86
2024-05-09T11:50:55.996Z,64.16
2024-05-09T11:51:56.045Z,64.46
2024-05-09T11:52:55.954Z,66.87
2024-05-09T11:53:55.925Z,67.18
2024-05-09T11:54:55.981Z,66.71
2024-05-09T11:55:55.883Z,68.78
2024-05-09T11:56:55.916Z,69.18
2024-05-09T11:57:56.098Z,67.88
2024-05-09T11:58:55.866Z,68.59
2024-05-09T11:59:55.818Z,67.98
2024-05-09T12:00:55.922Z,68.38
2024-05-09T12:01:55.880Z,63.76
2024-05-09T12:02:55.835Z,65.06
2024-05-09T12:03:56.708Z,65.26
2024-05-09T12:04:55.929Z,64.66
2024-05-09T12:05:56.004Z,66.07
2024-05-09T12:06:55.788Z,65.94
2024-05-09T12:07:55.735Z,65.03
2024-05-09T12:08:55.738Z,64.13
2024-05-09T12:09:55.750Z,64.43
2024-05-09T12:10:56.048Z,63.73
2024-05-09T12:11:55.767Z,62.72
2024-05-09T12:12:55.701Z,66.74
2024-05-09T12:13:55.653Z,64.93
2024-05-09T12:14:55.637Z,64.13
2024-05-09T12:15:55.641Z,62.62
2024-05-09T12:16:55.694Z,61.91
2024-05-09T12:17:58.348Z,62.62
2024-05-09T12:18:55.717Z,62.92
2024-05-09T12:19:55.564Z,63.53
2024-05-09T12:20:55.549Z,62.75
2024-05-09T12:21:55.583Z,63.56
2024-05-09T12:22:55.536Z,63.76
2024-05-09T12:23:55.546Z,64.56
2024-05-09T12:24:55.549Z,64.06
2024-05-09T12:25:55.490Z,64.13
2024-05-09T12:26:55.476Z,64.83
2024-05-09T12:27:55.573Z,63.62
2024-05-09T12:28:55.462Z,63.22
2024-05-09T12:29:55.427Z,63.62
2024-05-09T12:30:55.461Z,63.12
2024-05-09T12:31:55.490Z,63.02
2024-05-09T12:32:55.464Z,64.03
2024-05-09T12:33:55.499Z,62.02
2024-05-09T12:34:55.393Z,63.02
2024-05-09T12:35:55.386Z,64.43
2024-05-09T12:36:55.373Z,62.22
2024-05-09T12:37:55.355Z,62.42
2024-05-09T12:38:55.331Z,61.61
2024-05-09T12:39:55.354Z,63.02
2024-05-09T12:40:55.391Z,65.84
2024-05-09T12:41:55.283Z,63.73
2024-05-09T12:42:55.305Z,63.53
2024-05-09T12:43:55.265Z,63.62
2024-05-09T12:44:55.235Z,65.70
2024-05-09T12:45:55.385Z,65.60
2024-05-09T12:46:55.219Z,63.49
2024-05-09T12:47:55.299Z,64.00
2024-05-09T12:48:55.393Z,63.39
2024-05-09T12:49:55.221Z,62.59
2024-05-09T12:50:55.217Z,64.00
2024-05-09T12:51:55.261Z,66.91
2024-05-09T12:52:55.135Z,65.20
2024-05-09T12:53:55.143Z,65.00
2024-05-09T12:54:55.202Z,63.70
2024-05-09T12:55:59.940Z,63.49
2024-05-09T12:56:56.077Z,63.09
2024-05-09T12:57:55.124Z,63.79